<?xml version="1.0" encoding="UTF-8" standalone="no" ?><gpx xmlns="http://www.topografix.com/GPX/1/1" xmlns:gpxx="http://www.garmin.com/xmlschemas/GpxExtensions/v3" xmlns:wptx1="http://www.garmin.com/xmlschemas/WaypointExtension/v1" xmlns:gpxtpx="http://www.garmin.com/xmlschemas/TrackPointExtension/v1" creator="GuideVTT.com" version="1.1" xmlns:xsi="http://www.w3.org/2001/XMLSchema-instance" xsi:schemaLocation="http://www.topografix.com/GPX/1/1 http://www.topografix.com/GPX/1/1/gpx.xsd http://www.garmin.com/xmlschemas/GpxExtensions/v3 http://www8.garmin.com/xmlschemas/GpxExtensionsv3.xsd http://www.garmin.com/xmlschemas/WaypointExtension/v1 http://www8.garmin.com/xmlschemas/WaypointExtensionv1.xsd http://www.garmin.com/xmlschemas/TrackPointExtension/v1 http://www.garmin.com/xmlschemas/TrackPointExtensionv1.xsd">
<metadata><link href="http://www.garmin.com"><text>Garmin International</text></link><time>2013-06-22T15:13:50Z</time></metadata>
<trk><name>vtt_2017-06-19_5947cc9cd0e9e3091d75fd75.gpx</name><extensions><gpxx:TrackExtension><gpxx:DisplayColor>Cyan</gpxx:DisplayColor></gpxx:TrackExtension></extensions><trkseg>
<trkpt lat="47.277439117432" lon="4.0413446426392"><ele></ele><time>2022-6-11T1:56:50Z</time></trkpt>
<trkpt lat="47.277439117432" lon="4.0413384437561"><ele></ele><time>2022-6-11T1:56:53Z</time></trkpt>
<trkpt lat="47.27766418457" lon="4.0412731170654"><ele></ele><time>2022-6-11T1:56:56Z</time></trkpt>
<trkpt lat="47.27766418457" lon="4.0412731170654"><ele></ele><time>2022-6-11T1:56:59Z</time></trkpt>
<trkpt lat="47.277767181396" lon="4.041214466095"><ele></ele><time>2022-6-11T1:57:2Z</time></trkpt>
<trkpt lat="47.277767181396" lon="4.041214466095"><ele></ele><time>2022-6-11T1:57:5Z</time></trkpt>
<trkpt lat="47.278266906738" lon="4.0407857894897"><ele></ele><time>2022-6-11T1:57:8Z</time></trkpt>
<trkpt lat="47.278381347656" lon="4.0407328605652"><ele></ele><time>2022-6-11T1:57:11Z</time></trkpt>
<trkpt lat="47.278472900391" lon="4.040593624115"><ele></ele><time>2022-6-11T1:57:14Z</time></trkpt>
<trkpt lat="47.278472900391" lon="4.040593624115"><ele></ele><time>2022-6-11T1:57:17Z</time></trkpt>
<trkpt lat="47.278472900391" lon="4.040593624115"><ele></ele><time>2022-6-11T1:57:20Z</time></trkpt>
<trkpt lat="47.278472900391" lon="4.040593624115"><ele></ele><time>2022-6-11T1:57:23Z</time></trkpt>
<trkpt lat="47.278472900391" lon="4.040593624115"><ele></ele><time>2022-6-11T1:57:26Z</time></trkpt>
<trkpt lat="47.278472900391" lon="4.040593624115"><ele></ele><time>2022-6-11T1:57:29Z</time></trkpt>
<trkpt lat="47.278472900391" lon="4.040593624115"><ele></ele><time>2022-6-11T1:57:32Z</time></trkpt>
<trkpt lat="47.278472900391" lon="4.040593624115"><ele></ele><time>2022-6-11T1:57:35Z</time></trkpt>
<trkpt lat="47.278804779053" lon="4.040186882019"><ele></ele><time>2022-6-11T1:57:38Z</time></trkpt>
<trkpt lat="47.278877258301" lon="4.0400919914246"><ele></ele><time>2022-6-11T1:57:41Z</time></trkpt>
<trkpt lat="47.278991699219" lon="4.0399832725525"><ele></ele><time>2022-6-11T1:57:44Z</time></trkpt>
<trkpt lat="47.279083251953" lon="4.0399007797241"><ele></ele><time>2022-6-11T1:57:47Z</time></trkpt>
<trkpt lat="47.279167175293" lon="4.0398373603821"><ele></ele><time>2022-6-11T1:57:50Z</time></trkpt>
<trkpt lat="47.279277801514" lon="4.039767742157"><ele></ele><time>2022-6-11T1:57:53Z</time></trkpt>
<trkpt lat="47.279277801514" lon="4.039767742157"><ele></ele><time>2022-6-11T1:57:56Z</time></trkpt>
<trkpt lat="47.279277801514" lon="4.039767742157"><ele></ele><time>2022-6-11T1:57:59Z</time></trkpt>
<trkpt lat="47.279277801514" lon="4.039767742157"><ele></ele><time>2022-6-11T1:58:2Z</time></trkpt>
<trkpt lat="47.279277801514" lon="4.039767742157"><ele></ele><time>2022-6-11T1:58:5Z</time></trkpt>
<trkpt lat="47.279663085938" lon="4.0396265983582"><ele></ele><time>2022-6-11T1:58:8Z</time></trkpt>
<trkpt lat="47.279663085938" lon="4.0396265983582"><ele></ele><time>2022-6-11T1:58:11Z</time></trkpt>
<trkpt lat="47.279876708984" lon="4.0396766662598"><ele></ele><time>2022-6-11T1:58:14Z</time></trkpt>
<trkpt lat="47.279876708984" lon="4.0396766662598"><ele></ele><time>2022-6-11T1:58:17Z</time></trkpt>
<trkpt lat="47.279876708984" lon="4.0396766662598"><ele></ele><time>2022-6-11T1:58:20Z</time></trkpt>
<trkpt lat="47.2799949646" lon="4.0396151542664"><ele></ele><time>2022-6-11T1:58:23Z</time></trkpt>
<trkpt lat="47.280055999756" lon="4.0395131111145"><ele></ele><time>2022-6-11T1:58:26Z</time></trkpt>
<trkpt lat="47.280174255371" lon="4.0394058227539"><ele></ele><time>2022-6-11T1:58:29Z</time></trkpt>
<trkpt lat="47.280296325684" lon="4.0393447875977"><ele></ele><time>2022-6-11T1:58:32Z</time></trkpt>
<trkpt lat="47.280296325684" lon="4.0393447875977"><ele></ele><time>2022-6-11T1:58:35Z</time></trkpt>
<trkpt lat="47.280296325684" lon="4.0393447875977"><ele></ele><time>2022-6-11T1:58:38Z</time></trkpt>
<trkpt lat="47.280296325684" lon="4.0393447875977"><ele></ele><time>2022-6-11T1:58:41Z</time></trkpt>
<trkpt lat="47.280296325684" lon="4.0393447875977"><ele></ele><time>2022-6-11T1:58:44Z</time></trkpt>
<trkpt lat="47.280296325684" lon="4.0393447875977"><ele></ele><time>2022-6-11T1:58:47Z</time></trkpt>
<trkpt lat="47.280296325684" lon="4.0393447875977"><ele></ele><time>2022-6-11T1:58:50Z</time></trkpt>
<trkpt lat="47.280296325684" lon="4.0393447875977"><ele></ele><time>2022-6-11T1:58:53Z</time></trkpt>
<trkpt lat="47.280296325684" lon="4.0393447875977"><ele></ele><time>2022-6-11T1:58:56Z</time></trkpt>
<trkpt lat="47.280296325684" lon="4.0393447875977"><ele></ele><time>2022-6-11T1:58:59Z</time></trkpt>
<trkpt lat="47.280296325684" lon="4.0393447875977"><ele></ele><time>2022-6-11T1:59:2Z</time></trkpt>
<trkpt lat="47.280296325684" lon="4.0393447875977"><ele></ele><time>2022-6-11T1:59:5Z</time></trkpt>
<trkpt lat="47.280746459961" lon="4.0390992164612"><ele></ele><time>2022-6-11T1:59:8Z</time></trkpt>
<trkpt lat="47.280868530273" lon="4.0391674041748"><ele></ele><time>2022-6-11T1:59:11Z</time></trkpt>
<trkpt lat="47.280956268311" lon="4.0392351150513"><ele></ele><time>2022-6-11T1:59:14Z</time></trkpt>
<trkpt lat="47.280956268311" lon="4.0392351150513"><ele></ele><time>2022-6-11T1:59:17Z</time></trkpt>
<trkpt lat="47.281066894531" lon="4.0391788482666"><ele></ele><time>2022-6-11T1:59:20Z</time></trkpt>
<trkpt lat="47.281177520752" lon="4.0391411781311"><ele></ele><time>2022-6-11T1:59:23Z</time></trkpt>
<trkpt lat="47.281269073486" lon="4.0391092300415"><ele></ele><time>2022-6-11T1:59:26Z</time></trkpt>
<trkpt lat="47.281368255615" lon="4.0390882492065"><ele></ele><time>2022-6-11T1:59:29Z</time></trkpt>
<trkpt lat="47.28148651123" lon="4.039116859436"><ele></ele><time>2022-6-11T1:59:32Z</time></trkpt>
<trkpt lat="47.281620025635" lon="4.0391669273376"><ele></ele><time>2022-6-11T1:59:35Z</time></trkpt>
<trkpt lat="47.281799316406" lon="4.0391621589661"><ele></ele><time>2022-6-11T1:59:38Z</time></trkpt>
<trkpt lat="47.281951904297" lon="4.0391497612"><ele></ele><time>2022-6-11T1:59:41Z</time></trkpt>
<trkpt lat="47.282020568848" lon="4.0391874313354"><ele></ele><time>2022-6-11T1:59:44Z</time></trkpt>
<trkpt lat="47.282089233398" lon="4.0392189025879"><ele></ele><time>2022-6-11T1:59:47Z</time></trkpt>
<trkpt lat="47.282165527344" lon="4.0392322540283"><ele></ele><time>2022-6-11T1:59:50Z</time></trkpt>
<trkpt lat="47.282230377197" lon="4.0392465591431"><ele></ele><time>2022-6-11T1:59:53Z</time></trkpt>
<trkpt lat="47.282291412354" lon="4.0392756462097"><ele></ele><time>2022-6-11T1:59:56Z</time></trkpt>
<trkpt lat="47.282432556152" lon="4.0393023490906"><ele></ele><time>2022-6-11T1:59:59Z</time></trkpt>
<trkpt lat="47.282527923584" lon="4.0393099784851"><ele></ele><time>2022-6-11T2:0:2Z</time></trkpt>
<trkpt lat="47.282527923584" lon="4.0393099784851"><ele></ele><time>2022-6-11T2:0:5Z</time></trkpt>
<trkpt lat="47.282527923584" lon="4.0393099784851"><ele></ele><time>2022-6-11T2:0:8Z</time></trkpt>
<trkpt lat="47.282779693604" lon="4.0393962860107"><ele></ele><time>2022-6-11T2:0:11Z</time></trkpt>
<trkpt lat="47.2829246521" lon="4.0394163131714"><ele></ele><time>2022-6-11T2:0:14Z</time></trkpt>
<trkpt lat="47.283046722412" lon="4.0394325256348"><ele></ele><time>2022-6-11T2:0:17Z</time></trkpt>
<trkpt lat="47.283550262451" lon="4.0396270751953"><ele></ele><time>2022-6-11T2:0:20Z</time></trkpt>
<trkpt lat="47.283695220947" lon="4.0396857261658"><ele></ele><time>2022-6-11T2:0:23Z</time></trkpt>
<trkpt lat="47.283809661865" lon="4.0397820472717"><ele></ele><time>2022-6-11T2:0:26Z</time></trkpt>
<trkpt lat="47.283809661865" lon="4.0397820472717"><ele></ele><time>2022-6-11T2:0:29Z</time></trkpt>
<trkpt lat="47.283809661865" lon="4.0397820472717"><ele></ele><time>2022-6-11T2:0:32Z</time></trkpt>
<trkpt lat="47.283809661865" lon="4.0397820472717"><ele></ele><time>2022-6-11T2:0:35Z</time></trkpt>
<trkpt lat="47.283809661865" lon="4.0397820472717"><ele></ele><time>2022-6-11T2:0:38Z</time></trkpt>
<trkpt lat="47.283809661865" lon="4.0397820472717"><ele></ele><time>2022-6-11T2:0:41Z</time></trkpt>
<trkpt lat="47.283809661865" lon="4.0397820472717"><ele></ele><time>2022-6-11T2:0:44Z</time></trkpt>
<trkpt lat="47.283809661865" lon="4.0397820472717"><ele></ele><time>2022-6-11T2:0:47Z</time></trkpt>
<trkpt lat="47.283809661865" lon="4.0397820472717"><ele></ele><time>2022-6-11T2:0:50Z</time></trkpt>
<trkpt lat="47.283809661865" lon="4.0397820472717"><ele></ele><time>2022-6-11T2:0:53Z</time></trkpt>
<trkpt lat="47.284149169922" lon="4.0397472381592"><ele></ele><time>2022-6-11T2:0:56Z</time></trkpt>
<trkpt lat="47.284236907959" lon="4.0396766662598"><ele></ele><time>2022-6-11T2:0:59Z</time></trkpt>
<trkpt lat="47.284236907959" lon="4.0396766662598"><ele></ele><time>2022-6-11T2:1:2Z</time></trkpt>
<trkpt lat="47.284236907959" lon="4.0396766662598"><ele></ele><time>2022-6-11T2:1:5Z</time></trkpt>
<trkpt lat="47.284236907959" lon="4.0396766662598"><ele></ele><time>2022-6-11T2:1:8Z</time></trkpt>
<trkpt lat="47.284236907959" lon="4.0396766662598"><ele></ele><time>2022-6-11T2:1:11Z</time></trkpt>
<trkpt lat="47.284236907959" lon="4.0396766662598"><ele></ele><time>2022-6-11T2:1:14Z</time></trkpt>
<trkpt lat="47.284236907959" lon="4.0396766662598"><ele></ele><time>2022-6-11T2:1:17Z</time></trkpt>
<trkpt lat="47.284236907959" lon="4.0396766662598"><ele></ele><time>2022-6-11T2:1:20Z</time></trkpt>
<trkpt lat="47.284236907959" lon="4.0396766662598"><ele></ele><time>2022-6-11T2:1:23Z</time></trkpt>
<trkpt lat="47.284236907959" lon="4.0396766662598"><ele></ele><time>2022-6-11T2:1:26Z</time></trkpt>
<trkpt lat="47.284236907959" lon="4.0396766662598"><ele></ele><time>2022-6-11T2:1:29Z</time></trkpt>
<trkpt lat="47.284786224365" lon="4.039933681488"><ele></ele><time>2022-6-11T2:1:32Z</time></trkpt>
<trkpt lat="47.284786224365" lon="4.039933681488"><ele></ele><time>2022-6-11T2:1:35Z</time></trkpt>
<trkpt lat="47.284786224365" lon="4.039933681488"><ele></ele><time>2022-6-11T2:1:38Z</time></trkpt>
<trkpt lat="47.284786224365" lon="4.039933681488"><ele></ele><time>2022-6-11T2:1:41Z</time></trkpt>
<trkpt lat="47.284885406494" lon="4.0400061607361"><ele></ele><time>2022-6-11T2:1:44Z</time></trkpt>
<trkpt lat="47.284992218018" lon="4.0399751663208"><ele></ele><time>2022-6-11T2:1:47Z</time></trkpt>
<trkpt lat="47.285121917725" lon="4.0399956703186"><ele></ele><time>2022-6-11T2:1:50Z</time></trkpt>
<trkpt lat="47.285251617432" lon="4.0399684906006"><ele></ele><time>2022-6-11T2:1:53Z</time></trkpt>
<trkpt lat="47.285251617432" lon="4.0399684906006"><ele></ele><time>2022-6-11T2:1:56Z</time></trkpt>
<trkpt lat="47.285346984863" lon="4.039954662323"><ele></ele><time>2022-6-11T2:1:59Z</time></trkpt>
<trkpt lat="47.285346984863" lon="4.039954662323"><ele></ele><time>2022-6-11T2:2:2Z</time></trkpt>
<trkpt lat="47.285346984863" lon="4.039954662323"><ele></ele><time>2022-6-11T2:2:5Z</time></trkpt>
<trkpt lat="47.285629272461" lon="4.0398397445679"><ele></ele><time>2022-6-11T2:2:8Z</time></trkpt>
<trkpt lat="47.285713195801" lon="4.0398001670837"><ele></ele><time>2022-6-11T2:2:11Z</time></trkpt>
<trkpt lat="47.285713195801" lon="4.0398001670837"><ele></ele><time>2022-6-11T2:2:14Z</time></trkpt>
<trkpt lat="47.285713195801" lon="4.0398001670837"><ele></ele><time>2022-6-11T2:2:17Z</time></trkpt>
<trkpt lat="47.285713195801" lon="4.0398001670837"><ele></ele><time>2022-6-11T2:2:20Z</time></trkpt>
<trkpt lat="47.285713195801" lon="4.0398001670837"><ele></ele><time>2022-6-11T2:2:23Z</time></trkpt>
<trkpt lat="47.286041259766" lon="4.0397458076477"><ele></ele><time>2022-6-11T2:2:26Z</time></trkpt>
<trkpt lat="47.286170959473" lon="4.0397424697876"><ele></ele><time>2022-6-11T2:2:29Z</time></trkpt>
<trkpt lat="47.286273956299" lon="4.0397620201111"><ele></ele><time>2022-6-11T2:2:32Z</time></trkpt>
<trkpt lat="47.286273956299" lon="4.0397620201111"><ele></ele><time>2022-6-11T2:2:35Z</time></trkpt>
<trkpt lat="47.286273956299" lon="4.0397620201111"><ele></ele><time>2022-6-11T2:2:38Z</time></trkpt>
<trkpt lat="47.286273956299" lon="4.0397620201111"><ele></ele><time>2022-6-11T2:2:41Z</time></trkpt>
<trkpt lat="47.286273956299" lon="4.0397620201111"><ele></ele><time>2022-6-11T2:2:44Z</time></trkpt>
<trkpt lat="47.286273956299" lon="4.0397620201111"><ele></ele><time>2022-6-11T2:2:47Z</time></trkpt>
<trkpt lat="47.28666305542" lon="4.0396971702576"><ele></ele><time>2022-6-11T2:2:50Z</time></trkpt>
<trkpt lat="47.286712646484" lon="4.0396962165833"><ele></ele><time>2022-6-11T2:2:53Z</time></trkpt>
<trkpt lat="47.286773681641" lon="4.0397043228149"><ele></ele><time>2022-6-11T2:2:56Z</time></trkpt>
<trkpt lat="47.286823272705" lon="4.0397200584412"><ele></ele><time>2022-6-11T2:2:59Z</time></trkpt>
<trkpt lat="47.286918640137" lon="4.039719581604"><ele></ele><time>2022-6-11T2:3:2Z</time></trkpt>
<trkpt lat="47.287006378174" lon="4.0397176742554"><ele></ele><time>2022-6-11T2:3:5Z</time></trkpt>
<trkpt lat="47.287101745605" lon="4.0397067070007"><ele></ele><time>2022-6-11T2:3:8Z</time></trkpt>
<trkpt lat="47.28719329834" lon="4.0396966934204"><ele></ele><time>2022-6-11T2:3:11Z</time></trkpt>
<trkpt lat="47.287284851074" lon="4.0396771430969"><ele></ele><time>2022-6-11T2:3:14Z</time></trkpt>
<trkpt lat="47.287498474121" lon="4.0396175384521"><ele></ele><time>2022-6-11T2:3:17Z</time></trkpt>
<trkpt lat="47.287647247314" lon="4.039568901062"><ele></ele><time>2022-6-11T2:3:20Z</time></trkpt>
<trkpt lat="47.287788391113" lon="4.0394992828369"><ele></ele><time>2022-6-11T2:3:23Z</time></trkpt>
<trkpt lat="47.287914276123" lon="4.0394020080566"><ele></ele><time>2022-6-11T2:3:26Z</time></trkpt>
<trkpt lat="47.288146972656" lon="4.0392785072327"><ele></ele><time>2022-6-11T2:3:29Z</time></trkpt>
<trkpt lat="47.288249969482" lon="4.0391750335693"><ele></ele><time>2022-6-11T2:3:32Z</time></trkpt>
<trkpt lat="47.288379669189" lon="4.0390629768372"><ele></ele><time>2022-6-11T2:3:35Z</time></trkpt>
<trkpt lat="47.288501739502" lon="4.0389604568481"><ele></ele><time>2022-6-11T2:3:38Z</time></trkpt>
<trkpt lat="47.288612365723" lon="4.0388503074646"><ele></ele><time>2022-6-11T2:3:41Z</time></trkpt>
<trkpt lat="47.288719177246" lon="4.038731098175"><ele></ele><time>2022-6-11T2:3:44Z</time></trkpt>
<trkpt lat="47.28882598877" lon="4.03861951828"><ele></ele><time>2022-6-11T2:3:47Z</time></trkpt>
<trkpt lat="47.288944244385" lon="4.0385127067566"><ele></ele><time>2022-6-11T2:3:50Z</time></trkpt>
<trkpt lat="47.2890625" lon="4.0384001731873"><ele></ele><time>2022-6-11T2:3:53Z</time></trkpt>
<trkpt lat="47.289176940918" lon="4.0382809638977"><ele></ele><time>2022-6-11T2:3:56Z</time></trkpt>
<trkpt lat="47.28929901123" lon="4.0381603240967"><ele></ele><time>2022-6-11T2:3:59Z</time></trkpt>
<trkpt lat="47.289413452148" lon="4.038031578064"><ele></ele><time>2022-6-11T2:4:2Z</time></trkpt>
<trkpt lat="47.289520263672" lon="4.0378623008728"><ele></ele><time>2022-6-11T2:4:5Z</time></trkpt>
<trkpt lat="47.289623260498" lon="4.037709236145"><ele></ele><time>2022-6-11T2:4:8Z</time></trkpt>
<trkpt lat="47.289730072021" lon="4.0375537872314"><ele></ele><time>2022-6-11T2:4:11Z</time></trkpt>
<trkpt lat="47.28982925415" lon="4.0373935699463"><ele></ele><time>2022-6-11T2:4:14Z</time></trkpt>
<trkpt lat="47.289943695068" lon="4.0372657775879"><ele></ele><time>2022-6-11T2:4:17Z</time></trkpt>
<trkpt lat="47.290046691895" lon="4.0371413230896"><ele></ele><time>2022-6-11T2:4:20Z</time></trkpt>
<trkpt lat="47.290157318115" lon="4.0370287895203"><ele></ele><time>2022-6-11T2:4:23Z</time></trkpt>
<trkpt lat="47.290256500244" lon="4.0368990898132"><ele></ele><time>2022-6-11T2:4:26Z</time></trkpt>
<trkpt lat="47.290351867676" lon="4.036792755127"><ele></ele><time>2022-6-11T2:4:29Z</time></trkpt>
<trkpt lat="47.290458679199" lon="4.0367021560669"><ele></ele><time>2022-6-11T2:4:32Z</time></trkpt>
<trkpt lat="47.290576934814" lon="4.0365772247314"><ele></ele><time>2022-6-11T2:4:35Z</time></trkpt>
<trkpt lat="47.290706634521" lon="4.0364856719971"><ele></ele><time>2022-6-11T2:4:38Z</time></trkpt>
<trkpt lat="47.29084777832" lon="4.0363364219666"><ele></ele><time>2022-6-11T2:4:41Z</time></trkpt>
<trkpt lat="47.290988922119" lon="4.0362386703491"><ele></ele><time>2022-6-11T2:4:44Z</time></trkpt>
<trkpt lat="47.291126251221" lon="4.0361666679382"><ele></ele><time>2022-6-11T2:4:47Z</time></trkpt>
<trkpt lat="47.291278839111" lon="4.0361084938049"><ele></ele><time>2022-6-11T2:4:50Z</time></trkpt>
<trkpt lat="47.29141998291" lon="4.0360550880432"><ele></ele><time>2022-6-11T2:4:53Z</time></trkpt>
<trkpt lat="47.291542053223" lon="4.0360102653503"><ele></ele><time>2022-6-11T2:4:56Z</time></trkpt>
<trkpt lat="47.291683197021" lon="4.035943031311"><ele></ele><time>2022-6-11T2:4:59Z</time></trkpt>
<trkpt lat="47.291816711426" lon="4.0359010696411"><ele></ele><time>2022-6-11T2:5:2Z</time></trkpt>
<trkpt lat="47.291946411133" lon="4.0358309745789"><ele></ele><time>2022-6-11T2:5:5Z</time></trkpt>
<trkpt lat="47.29207611084" lon="4.0357584953308"><ele></ele><time>2022-6-11T2:5:8Z</time></trkpt>
<trkpt lat="47.292209625244" lon="4.0356631278992"><ele></ele><time>2022-6-11T2:5:11Z</time></trkpt>
<trkpt lat="47.292324066162" lon="4.0355706214905"><ele></ele><time>2022-6-11T2:5:14Z</time></trkpt>
<trkpt lat="47.292423248291" lon="4.0354404449463"><ele></ele><time>2022-6-11T2:5:17Z</time></trkpt>
<trkpt lat="47.292530059814" lon="4.0353364944458"><ele></ele><time>2022-6-11T2:5:20Z</time></trkpt>
<trkpt lat="47.292636871338" lon="4.0352430343628"><ele></ele><time>2022-6-11T2:5:23Z</time></trkpt>
<trkpt lat="47.292747497559" lon="4.0351257324219"><ele></ele><time>2022-6-11T2:5:26Z</time></trkpt>
<trkpt lat="47.292831420898" lon="4.0350499153137"><ele></ele><time>2022-6-11T2:5:29Z</time></trkpt>
<trkpt lat="47.292831420898" lon="4.0350499153137"><ele></ele><time>2022-6-11T2:5:32Z</time></trkpt>
<trkpt lat="47.292831420898" lon="4.0350499153137"><ele></ele><time>2022-6-11T2:5:35Z</time></trkpt>
<trkpt lat="47.292831420898" lon="4.0350499153137"><ele></ele><time>2022-6-11T2:5:38Z</time></trkpt>
<trkpt lat="47.292831420898" lon="4.0350499153137"><ele></ele><time>2022-6-11T2:5:41Z</time></trkpt>
<trkpt lat="47.292831420898" lon="4.0350499153137"><ele></ele><time>2022-6-11T2:5:44Z</time></trkpt>
<trkpt lat="47.292831420898" lon="4.0350499153137"><ele></ele><time>2022-6-11T2:5:47Z</time></trkpt>
<trkpt lat="47.292831420898" lon="4.0350499153137"><ele></ele><time>2022-6-11T2:5:50Z</time></trkpt>
<trkpt lat="47.293228149414" lon="4.0346174240112"><ele></ele><time>2022-6-11T2:5:53Z</time></trkpt>
<trkpt lat="47.293304443359" lon="4.0345325469971"><ele></ele><time>2022-6-11T2:5:56Z</time></trkpt>
<trkpt lat="47.293380737305" lon="4.0344619750977"><ele></ele><time>2022-6-11T2:5:59Z</time></trkpt>
<trkpt lat="47.293460845947" lon="4.034384727478"><ele></ele><time>2022-6-11T2:6:2Z</time></trkpt>
<trkpt lat="47.29354095459" lon="4.0342950820923"><ele></ele><time>2022-6-11T2:6:5Z</time></trkpt>
<trkpt lat="47.29362487793" lon="4.0342054367065"><ele></ele><time>2022-6-11T2:6:8Z</time></trkpt>
<trkpt lat="47.29370880127" lon="4.0341167449951"><ele></ele><time>2022-6-11T2:6:11Z</time></trkpt>
<trkpt lat="47.293800354004" lon="4.034022808075"><ele></ele><time>2022-6-11T2:6:14Z</time></trkpt>
<trkpt lat="47.293891906738" lon="4.0339269638062"><ele></ele><time>2022-6-11T2:6:17Z</time></trkpt>
<trkpt lat="47.293975830078" lon="4.0338106155396"><ele></ele><time>2022-6-11T2:6:20Z</time></trkpt>
<trkpt lat="47.294067382812" lon="4.0337028503418"><ele></ele><time>2022-6-11T2:6:23Z</time></trkpt>
<trkpt lat="47.294151306152" lon="4.0335960388184"><ele></ele><time>2022-6-11T2:6:26Z</time></trkpt>
<trkpt lat="47.294242858887" lon="4.033486366272"><ele></ele><time>2022-6-11T2:6:29Z</time></trkpt>
<trkpt lat="47.294322967529" lon="4.0333771705627"><ele></ele><time>2022-6-11T2:6:32Z</time></trkpt>
<trkpt lat="47.294322967529" lon="4.0333771705627"><ele></ele><time>2022-6-11T2:6:35Z</time></trkpt>
<trkpt lat="47.294322967529" lon="4.0333771705627"><ele></ele><time>2022-6-11T2:6:38Z</time></trkpt>
<trkpt lat="47.294322967529" lon="4.0333771705627"><ele></ele><time>2022-6-11T2:6:41Z</time></trkpt>
<trkpt lat="47.294322967529" lon="4.0333771705627"><ele></ele><time>2022-6-11T2:6:44Z</time></trkpt>
<trkpt lat="47.294322967529" lon="4.0333771705627"><ele></ele><time>2022-6-11T2:6:47Z</time></trkpt>
<trkpt lat="47.294322967529" lon="4.0333771705627"><ele></ele><time>2022-6-11T2:6:50Z</time></trkpt>
<trkpt lat="47.294322967529" lon="4.0333771705627"><ele></ele><time>2022-6-11T2:6:53Z</time></trkpt>
<trkpt lat="47.294322967529" lon="4.0333771705627"><ele></ele><time>2022-6-11T2:6:56Z</time></trkpt>
<trkpt lat="47.294322967529" lon="4.0333771705627"><ele></ele><time>2022-6-11T2:6:59Z</time></trkpt>
<trkpt lat="47.294322967529" lon="4.0333771705627"><ele></ele><time>2022-6-11T2:7:2Z</time></trkpt>
</trkseg></trk></gpx>